createdAt,value
2023-12-23T00:00:18.028Z,76.36
2023-12-23T00:03:06.737Z,76.28
2023-12-23T00:05:35.092Z,76.56
2023-12-23T00:08:03.382Z,76.47
2023-12-23T00:10:31.833Z,76.50
2023-12-23T00:12:59.895Z,76.25
2023-12-23T00:15:27.840Z,76.66
2023-12-23T00:17:56.785Z,76.38
2023-12-23T00:20:25.161Z,76.46
2023-12-23T00:22:53.654Z,76.38
2023-12-23T00:25:22.000Z,75.75
2023-12-23T00:27:50.110Z,76.08
2023-12-23T00:30:18.427Z,76.06
2023-12-23T00:32:52.483Z,76.16
2023-12-23T00:35:21.475Z,75.69
2023-12-23T00:37:49.941Z,76.10
2023-12-23T00:40:18.101Z,75.90
2023-12-23T00:42:46.159Z,76.04
2023-12-23T00:45:14.143Z,75.88
2023-12-23T00:47:42.332Z,75.55
2023-12-23T00:50:10.814Z,75.52
2023-12-23T00:52:42.334Z,75.85
2023-12-23T00:55:13.601Z,75.71
2023-12-23T00:57:41.903Z,75.59
2023-12-23T01:00:10.247Z,75.59
2023-12-23T01:02:41.132Z,75.56
2023-12-23T01:05:10.412Z,75.47
2023-12-23T01:07:43.270Z,75.81
2023-12-23T01:10:11.401Z,75.90
2023-12-23T01:12:39.447Z,75.30
2023-12-23T01:15:08.007Z,75.40
2023-12-23T01:17:36.168Z,75.89
2023-12-23T01:20:06.439Z,75.82
2023-12-23T01:22:35.526Z,75.62
2023-12-23T01:25:04.037Z,75.39
2023-12-23T01:27:34.904Z,75.25
2023-12-23T01:30:04.137Z,75.34
2023-12-23T01:32:32.367Z,75.35
2023-12-23T01:35:00.807Z,75.45
2023-12-23T01:37:29.261Z,75.39
2023-12-23T01:39:59.570Z,75.45
2023-12-23T01:42:28.231Z,75.72
2023-12-23T01:44:56.940Z,75.56
2023-12-23T01:47:27.542Z,75.10
2023-12-23T01:49:57.558Z,75.49
2023-12-23T01:52:25.605Z,75.62
2023-12-23T01:54:57.181Z,75.59
2023-12-23T01:57:25.833Z,75.53
2023-12-23T01:59:54.078Z,75.73
2023-12-23T02:02:23.395Z,75.57
2023-12-23T02:04:51.865Z,75.80
2023-12-23T02:07:22.698Z,75.60
2023-12-23T02:09:50.869Z,75.56
2023-12-23T02:12:32.623Z,75.42
2023-12-23T02:15:10.933Z,75.61
2023-12-23T02:17:39.834Z,75.60
2023-12-23T02:20:08.732Z,75.55
2023-12-23T02:22:36.902Z,75.45
2023-12-23T02:25:05.297Z,75.46
2023-12-23T02:27:51.433Z,75.73
2023-12-23T02:30:20.615Z,75.63
2023-12-23T02:32:49.655Z,75.19
2023-12-23T02:35:18.306Z,75.52
2023-12-23T02:37:46.682Z,75.55
2023-12-23T02:40:14.826Z,75.56
2023-12-23T02:42:43.021Z,75.62
2023-12-23T02:45:11.389Z,75.44
2023-12-23T02:47:39.635Z,74.98
2023-12-23T02:50:08.867Z,75.14
2023-12-23T02:52:38.852Z,75.10
2023-12-23T02:55:07.917Z,75.47
2023-12-23T02:57:39.293Z,75.56
2023-12-23T03:00:11.186Z,75.50
2023-12-23T03:02:39.175Z,75.53
2023-12-23T03:05:08.385Z,75.56
2023-12-23T03:07:36.494Z,75.41
2023-12-23T03:10:05.297Z,75.42
2023-12-23T03:12:33.402Z,75.63
2023-12-23T03:15:01.950Z,75.75
2023-12-23T03:17:30.353Z,75.78
2023-12-23T03:19:58.381Z,75.84
2023-12-23T03:22:26.492Z,75.86
2023-12-23T03:24:54.729Z,75.88
2023-12-23T03:27:23.082Z,75.89
2023-12-23T03:29:51.159Z,75.80
2023-12-23T03:32:19.576Z,76.00
2023-12-23T03:34:47.850Z,76.01
2023-12-23T03:37:16.040Z,75.93
2023-12-23T03:39:46.399Z,76.01
2023-12-23T03:42:14.524Z,75.81
2023-12-23T03:44:42.588Z,76.01
2023-12-23T03:47:10.783Z,75.98
2023-12-23T03:49:38.945Z,76.09
2023-12-23T03:52:06.898Z,76.21
2023-12-23T03:54:37.524Z,76.13
2023-12-23T03:57:05.753Z,75.90
2023-12-23T03:59:33.666Z,76.05
2023-12-23T04:02:02.103Z,75.99
2023-12-23T04:04:30.190Z,76.03
2023-12-23T04:06:58.409Z,75.90
2023-12-23T04:09:26.486Z,75.94
2023-12-23T04:11:54.809Z,76.10
2023-12-23T04:14:23.114Z,76.09
2023-12-23T04:16:51.617Z,76.14
2023-12-23T04:19:19.831Z,76.09
2023-12-23T04:21:47.896Z,76.26
2023-12-23T04:24:16.168Z,76.06
2023-12-23T04:26:44.648Z,76.01
2023-12-23T04:29:13.415Z,76.09
2023-12-23T04:31:42.154Z,76.20
2023-12-23T04:34:11.808Z,76.16
2023-12-23T04:36:40.153Z,76.10
2023-12-23T04:39:08.305Z,76.30
2023-12-23T04:41:36.339Z,76.21
2023-12-23T04:44:04.816Z,76.26
2023-12-23T04:46:33.001Z,76.28
2023-12-23T04:49:01.214Z,76.46
2023-12-23T04:51:29.420Z,76.47
2023-12-23T04:53:57.715Z,76.43
2023-12-23T04:56:26.175Z,76.38
2023-12-23T04:58:54.370Z,76.43
2023-12-23T05:01:26.989Z,76.35
2023-12-23T05:03:56.023Z,76.36
2023-12-23T05:06:24.160Z,76.37
2023-12-23T05:08:52.456Z,76.28
2023-12-23T05:11:20.774Z,76.44
2023-12-23T05:13:48.933Z,76.27
2023-12-23T05:16:16.998Z,76.22
2023-12-23T05:18:45.347Z,76.31
2023-12-23T05:21:13.577Z,76.11
2023-12-23T05:23:41.807Z,75.92
2023-12-23T05:26:10.430Z,75.96
2023-12-23T05:28:41.255Z,76.15
2023-12-23T05:31:12.319Z,76.16
2023-12-23T05:33:40.526Z,76.12
2023-12-23T05:36:09.562Z,75.99
2023-12-23T05:38:40.364Z,75.85
2023-12-23T05:41:10.229Z,75.83
2023-12-23T05:43:38.359Z,76.10
2023-12-23T05:46:06.706Z,76.02
2023-12-23T05:48:37.312Z,75.95
2023-12-23T05:51:09.178Z,76.17
2023-12-23T05:53:37.205Z,76.32
2023-12-23T05:56:09.180Z,76.42
2023-12-23T05:58:37.484Z,76.37
2023-12-23T06:01:07.943Z,76.00
2023-12-23T06:03:36.177Z,75.84
2023-12-23T06:06:05.643Z,76.05
2023-12-23T06:08:33.790Z,76.04
2023-12-23T06:13:30.381Z,76.06
2023-12-23T06:15:58.378Z,76.39
2023-12-23T06:18:26.685Z,76.29
2023-12-23T06:20:55.009Z,76.39
2023-12-23T06:23:25.635Z,76.42
2023-12-23T06:25:54.121Z,76.13
2023-12-23T06:28:22.234Z,76.29
2023-12-23T06:30:50.718Z,76.38
2023-12-23T06:33:19.209Z,76.37
2023-12-23T06:35:47.413Z,76.41
2023-12-23T06:38:17.496Z,76.34
2023-12-23T06:40:46.006Z,76.37
2023-12-23T06:43:44.108Z,76.29
2023-12-23T06:46:02.134Z,76.08
2023-12-23T06:48:34.255Z,76.01
2023-12-23T06:51:04.682Z,76.26
2023-12-23T06:53:32.824Z,76.29
2023-12-23T06:56:01.074Z,76.21
2023-12-23T06:58:32.504Z,76.17
2023-12-23T07:01:00.962Z,76.11
2023-12-23T07:03:29.482Z,76.23
2023-12-23T07:05:58.521Z,76.26
2023-12-23T07:08:26.981Z,76.31
2023-12-23T07:10:55.174Z,76.19
2023-12-23T07:13:23.336Z,76.07
2023-12-23T07:15:51.429Z,76.15
2023-12-23T07:18:19.873Z,76.27
2023-12-23T07:20:49.054Z,76.22
2023-12-23T07:23:17.378Z,76.26
2023-12-23T07:25:45.950Z,76.27
2023-12-23T07:28:14.097Z,76.18
2023-12-23T07:30:46.279Z,76.31
2023-12-23T07:33:15.286Z,76.29
2023-12-23T07:35:46.549Z,76.08
2023-12-23T07:38:15.432Z,76.21
2023-12-23T07:40:43.661Z,76.23
2023-12-23T07:43:11.978Z,76.23
2023-12-23T07:45:40.141Z,76.22
2023-12-23T07:48:08.438Z,76.29
2023-12-23T07:50:36.607Z,76.18
2023-12-23T07:53:05.031Z,76.09
2023-12-23T07:55:35.625Z,76.10
2023-12-23T07:58:03.836Z,76.18
2023-12-23T08:00:31.891Z,75.99
2023-12-23T08:03:02.711Z,75.92
2023-12-23T08:05:34.676Z,76.00
2023-12-23T08:08:02.910Z,76.04
2023-12-23T08:10:30.901Z,75.83
2023-12-23T08:12:59.013Z,75.91
2023-12-23T08:15:27.147Z,75.58
2023-12-23T08:17:55.465Z,75.59
2023-12-23T08:20:23.994Z,75.74
2023-12-23T08:22:53.001Z,75.83
2023-12-23T08:25:21.463Z,75.92
2023-12-23T08:27:55.464Z,75.62
2023-12-23T08:30:23.716Z,75.76
2023-12-23T08:32:52.248Z,75.61
2023-12-23T08:35:21.184Z,75.64
2023-12-23T08:37:49.697Z,75.64
2023-12-23T08:40:17.852Z,75.60
2023-12-23T08:42:46.308Z,75.70
2023-12-23T08:45:14.448Z,75.74
2023-12-23T08:47:44.006Z,75.52
2023-12-23T08:50:13.047Z,75.49
2023-12-23T08:52:41.051Z,75.29
2023-12-23T08:55:09.445Z,75.44
2023-12-23T08:57:40.292Z,75.49
2023-12-23T09:00:09.189Z,75.19
2023-12-23T09:02:37.352Z,75.55
2023-12-23T09:05:06.228Z,75.47
2023-12-23T09:07:35.979Z,75.38
2023-12-23T09:10:08.414Z,75.47
2023-12-23T09:12:37.401Z,75.54
2023-12-23T09:15:05.678Z,75.50
2023-12-23T09:17:34.877Z,75.60
2023-12-23T09:20:07.243Z,75.59
2023-12-23T09:22:35.522Z,75.49
2023-12-23T09:25:03.899Z,75.61
2023-12-23T09:27:32.749Z,75.77
2023-12-23T09:30:01.377Z,75.74
2023-12-23T09:32:29.896Z,75.76
2023-12-23T09:34:58.274Z,75.53
2023-12-23T09:37:26.480Z,75.61
2023-12-23T09:40:00.545Z,75.62
2023-12-23T09:42:32.460Z,75.81
2023-12-23T09:45:00.998Z,75.76
2023-12-23T09:47:29.185Z,75.75
2023-12-23T09:49:58.106Z,76.03
2023-12-23T09:52:26.743Z,76.13
2023-12-23T09:54:58.988Z,76.23
2023-12-23T09:57:28.158Z,76.30
2023-12-23T10:00:02.434Z,76.38
2023-12-23T10:02:42.502Z,76.44
2023-12-23T10:05:10.890Z,76.55
2023-12-23T10:07:39.621Z,76.56
2023-12-23T10:10:08.562Z,76.55
2023-12-23T10:12:37.290Z,76.56
2023-12-23T10:15:05.975Z,76.53
2023-12-23T10:17:37.031Z,76.62
2023-12-23T10:20:06.026Z,76.67
2023-12-23T10:22:34.330Z,76.69
2023-12-23T10:25:02.539Z,76.71
2023-12-23T10:27:34.183Z,76.78
2023-12-23T10:30:06.676Z,76.79
2023-12-23T10:32:38.208Z,76.85
2023-12-23T10:35:08.108Z,76.93
2023-12-23T10:37:41.782Z,77.22
2023-12-23T10:40:26.728Z,77.64
2023-12-23T10:43:03.205Z,78.47
2023-12-23T10:45:35.749Z,78.97
2023-12-23T10:48:08.158Z,79.23
2023-12-23T10:50:36.981Z,79.01
2023-12-23T10:53:14.116Z,78.93
2023-12-23T10:55:42.760Z,78.68
2023-12-23T10:58:13.571Z,78.64
2023-12-23T11:00:42.727Z,78.71
2023-12-23T11:03:12.857Z,78.75
2023-12-23T11:05:44.930Z,78.93
2023-12-23T11:08:24.027Z,78.91
2023-12-23T11:10:53.439Z,79.28
2023-12-23T11:13:22.168Z,79.21
2023-12-23T11:15:50.316Z,79.36
2023-12-23T11:18:18.416Z,79.11
2023-12-23T11:20:50.670Z,79.03
2023-12-23T11:23:28.424Z,78.99
2023-12-23T11:25:57.953Z,78.91
2023-12-23T11:28:27.804Z,78.67
2023-12-23T11:30:58.454Z,78.62
2023-12-23T11:33:29.224Z,78.53
2023-12-23T11:36:02.989Z,78.59
2023-12-23T11:38:51.890Z,79.03
2023-12-23T11:41:21.859Z,79.14
2023-12-23T11:43:51.642Z,79.65
2023-12-23T11:46:22.746Z,79.77
2023-12-23T11:48:51.076Z,80.17
2023-12-23T11:51:19.893Z,79.90
2023-12-23T11:53:49.060Z,80.10
2023-12-23T11:56:17.270Z,80.27
2023-12-23T11:58:45.770Z,80.33
2023-12-23T12:01:14.000Z,80.30
2023-12-23T12:03:42.265Z,80.04
2023-12-23T12:06:11.191Z,79.88
2023-12-23T12:08:39.770Z,79.85
2023-12-23T12:11:13.689Z,79.93
2023-12-23T12:13:41.910Z,79.91
2023-12-23T12:16:11.157Z,79.80
2023-12-23T12:18:41.777Z,79.56
2023-12-23T12:21:10.151Z,79.29
2023-12-23T12:23:38.460Z,79.24
2023-12-23T12:26:08.886Z,78.99
2023-12-23T12:28:37.982Z,78.73
2023-12-23T12:31:13.146Z,78.61
2023-12-23T12:33:43.585Z,78.62
2023-12-23T12:36:17.214Z,78.57
2023-12-23T12:38:46.309Z,78.20
2023-12-23T12:41:14.998Z,78.15
2023-12-23T12:43:45.006Z,78.03
2023-12-23T12:46:16.667Z,77.93
2023-12-23T12:48:47.519Z,78.15
2023-12-23T12:51:20.119Z,78.16
2023-12-23T12:53:48.641Z,77.92
2023-12-23T12:56:23.176Z,78.02
2023-12-23T12:58:52.772Z,78.16
2023-12-23T13:01:22.696Z,78.03
2023-12-23T13:03:51.745Z,78.09
2023-12-23T13:06:20.598Z,78.18
2023-12-23T13:08:48.766Z,78.21
2023-12-23T13:11:17.352Z,78.20
2023-12-23T13:13:46.375Z,78.34
2023-12-23T13:16:14.790Z,78.20
2023-12-23T13:18:52.655Z,78.23
2023-12-23T13:21:25.457Z,78.22
2023-12-23T13:23:53.763Z,78.11
2023-12-23T13:26:22.059Z,78.16
2023-12-23T13:28:52.390Z,78.34
2023-12-23T13:31:24.191Z,78.47
2023-12-23T13:33:52.490Z,78.35
2023-12-23T13:36:20.747Z,78.39
2023-12-23T13:38:54.439Z,78.39
2023-12-23T13:41:29.548Z,78.38
2023-12-23T13:44:01.259Z,78.41
2023-12-23T13:46:29.462Z,78.43
2023-12-23T13:48:58.256Z,78.39
2023-12-23T13:51:27.281Z,78.49
2023-12-23T13:53:56.801Z,78.53
2023-12-23T13:56:28.142Z,78.59
2023-12-23T13:58:56.405Z,78.69
2023-12-23T14:01:24.500Z,78.74
2023-12-23T14:03:52.823Z,78.73
2023-12-23T14:06:21.129Z,78.79
2023-12-23T14:08:49.596Z,78.94
2023-12-23T14:11:17.807Z,78.98
2023-12-23T14:13:46.604Z,79.07
2023-12-23T14:16:17.983Z,79.19
2023-12-23T14:18:47.747Z,79.35
2023-12-23T14:21:18.343Z,79.52
2023-12-23T14:23:46.901Z,79.63
2023-12-23T14:26:15.427Z,79.68
2023-12-23T14:28:43.515Z,79.87
2023-12-23T14:31:13.525Z,79.99
2023-12-23T14:33:43.562Z,80.12
2023-12-23T14:36:12.198Z,80.08
2023-12-23T14:38:40.952Z,80.21
2023-12-23T14:41:09.236Z,80.43
2023-12-23T14:43:37.585Z,80.52
2023-12-23T14:46:05.898Z,80.56
2023-12-23T14:48:34.635Z,80.72
2023-12-23T14:51:03.043Z,80.76
2023-12-23T14:53:34.292Z,80.74
2023-12-23T14:56:02.543Z,80.82
2023-12-23T14:58:31.161Z,80.84
2023-12-23T15:00:59.340Z,80.95
2023-12-23T15:03:27.625Z,80.96
2023-12-23T15:05:55.945Z,81.02
2023-12-23T15:08:24.230Z,80.97
2023-12-23T15:10:52.410Z,81.08
2023-12-23T15:13:23.046Z,81.40
2023-12-23T15:15:51.771Z,81.51
2023-12-23T15:18:20.286Z,81.54
2023-12-23T15:20:48.403Z,81.67
2023-12-23T15:23:16.506Z,81.66
2023-12-23T15:25:44.693Z,81.80
2023-12-23T15:28:12.867Z,81.70
2023-12-23T15:30:42.423Z,81.49
2023-12-23T15:33:10.719Z,81.64
2023-12-23T15:35:39.037Z,81.73
2023-12-23T15:38:07.710Z,81.70
2023-12-23T15:40:35.792Z,81.95
2023-12-23T15:43:05.522Z,82.09
2023-12-23T15:45:33.599Z,82.08
2023-12-23T15:48:02.158Z,82.11
2023-12-23T15:50:30.482Z,81.79
2023-12-23T15:52:58.829Z,81.96
2023-12-23T15:55:26.924Z,81.83
2023-12-23T15:57:56.306Z,82.10
2023-12-23T16:00:25.075Z,82.42
2023-12-23T16:02:55.777Z,82.54
2023-12-23T16:05:24.080Z,82.57
2023-12-23T16:07:52.720Z,82.79
2023-12-23T16:10:23.811Z,82.69
2023-12-23T16:12:52.167Z,82.56
2023-12-23T16:15:20.271Z,82.89
2023-12-23T16:17:48.326Z,82.74
2023-12-23T16:20:16.824Z,82.70
2023-12-23T16:22:44.930Z,83.00
2023-12-23T16:25:13.337Z,83.23
2023-12-23T16:27:41.312Z,83.27
2023-12-23T16:30:10.070Z,83.21
2023-12-23T16:32:38.866Z,83.22
2023-12-23T16:35:09.076Z,83.03
2023-12-23T16:37:37.345Z,83.20
2023-12-23T16:40:06.101Z,83.30
2023-12-23T16:42:35.575Z,83.27
2023-12-23T16:45:05.184Z,83.29
2023-12-23T16:47:33.553Z,83.24
2023-12-23T16:50:04.469Z,83.30
2023-12-23T16:52:33.281Z,83.43
2023-12-23T16:55:03.663Z,83.41
2023-12-23T16:57:31.766Z,83.37
2023-12-23T17:00:00.433Z,83.36
2023-12-23T17:05:56.052Z,83.28
2023-12-23T17:08:24.380Z,83.26
2023-12-23T17:10:52.897Z,83.25
2023-12-23T17:13:21.338Z,83.22
2023-12-23T17:15:49.399Z,83.12
2023-12-23T17:18:17.945Z,83.08
2023-12-23T17:20:46.257Z,83.03
2023-12-23T17:23:14.734Z,83.06
2023-12-23T17:25:42.781Z,83.04
2023-12-23T17:28:12.955Z,82.91
2023-12-23T17:30:42.594Z,83.00
2023-12-23T17:33:14.237Z,82.99
2023-12-23T17:35:43.036Z,82.93
2023-12-23T17:38:11.400Z,83.09
2023-12-23T17:40:40.329Z,83.13
2023-12-23T17:43:09.515Z,83.17
2023-12-23T17:45:38.601Z,83.18
2023-12-23T17:48:07.771Z,83.31
2023-12-23T17:50:36.842Z,83.42
2023-12-23T17:53:05.430Z,83.49
2023-12-23T17:55:33.491Z,83.36
2023-12-23T17:58:01.391Z,83.55
2023-12-23T18:00:29.589Z,83.56
2023-12-23T18:02:57.862Z,83.66
2023-12-23T18:05:26.249Z,83.80
2023-12-23T18:07:56.648Z,83.77
2023-12-23T18:10:24.766Z,83.87
2023-12-23T18:12:52.984Z,84.02
2023-12-23T18:15:21.492Z,84.16
2023-12-23T18:17:50.518Z,84.19
2023-12-23T18:20:18.744Z,84.03
2023-12-23T18:22:48.908Z,84.20
2023-12-23T18:25:17.432Z,84.33
2023-12-23T18:27:45.511Z,84.25
2023-12-23T18:30:13.982Z,84.23
2023-12-23T18:32:42.443Z,84.08
2023-12-23T18:35:10.794Z,84.03
2023-12-23T18:37:39.238Z,84.17
2023-12-23T18:40:08.016Z,84.00
2023-12-23T18:42:36.715Z,83.82
2023-12-23T18:45:08.393Z,84.10
2023-12-23T18:47:36.768Z,84.16
2023-12-23T18:50:05.669Z,84.46
2023-12-23T18:52:33.882Z,84.72
2023-12-23T18:55:02.049Z,84.77
2023-12-23T18:57:30.312Z,84.71
2023-12-23T18:59:58.436Z,84.55
2023-12-23T19:02:26.544Z,84.29
2023-12-23T19:04:57.111Z,84.62
2023-12-23T19:07:25.758Z,84.65
2023-12-23T19:09:53.738Z,84.70
2023-12-23T19:12:22.226Z,84.73
2023-12-23T19:14:50.783Z,84.81
2023-12-23T19:17:18.939Z,84.82
2023-12-23T19:19:47.232Z,84.81
2023-12-23T19:22:15.271Z,84.70
2023-12-23T19:24:45.412Z,85.21
2023-12-23T19:27:13.508Z,85.06
2023-12-23T19:29:42.506Z,85.20
2023-12-23T19:32:10.765Z,85.39
2023-12-23T19:34:38.760Z,85.14
2023-12-23T19:37:06.887Z,85.34
2023-12-23T19:39:35.064Z,85.22
2023-12-23T19:42:04.902Z,85.51
2023-12-23T19:44:33.662Z,85.71
2023-12-23T19:47:02.133Z,85.60
2023-12-23T19:49:30.262Z,85.88
2023-12-23T19:51:58.310Z,85.73
2023-12-23T19:54:27.442Z,85.64
2023-12-23T19:56:55.906Z,85.45
2023-12-23T19:59:24.228Z,85.74
2023-12-23T20:01:52.358Z,85.66
2023-12-23T20:04:21.596Z,85.86
2023-12-23T20:06:50.681Z,85.96
2023-12-23T20:09:19.952Z,86.00
2023-12-23T20:11:48.215Z,86.04
2023-12-23T20:14:16.631Z,85.91
2023-12-23T20:16:44.806Z,86.18
2023-12-23T20:19:14.064Z,85.78
2023-12-23T20:21:42.288Z,85.92
2023-12-23T20:24:13.667Z,86.10
2023-12-23T20:26:42.272Z,86.25
2023-12-23T20:29:10.787Z,86.26
2023-12-23T20:31:39.176Z,85.87
2023-12-23T20:34:08.364Z,85.46
2023-12-23T20:36:44.948Z,85.31
2023-12-23T20:39:25.774Z,85.29
2023-12-23T20:41:56.649Z,85.40
2023-12-23T20:44:25.342Z,85.36
2023-12-23T20:46:53.412Z,85.22
2023-12-23T20:49:21.767Z,85.15
2023-12-23T20:51:49.714Z,85.23
2023-12-23T20:54:17.815Z,85.17
2023-12-23T20:56:46.162Z,85.21
2023-12-23T20:59:14.263Z,85.24
2023-12-23T21:01:42.459Z,85.15
2023-12-23T21:04:10.782Z,85.03
2023-12-23T21:06:38.935Z,85.22
2023-12-23T21:09:09.362Z,85.16
2023-12-23T21:11:37.353Z,85.15
2023-12-23T21:14:05.551Z,85.29
2023-12-23T21:16:33.694Z,85.32
2023-12-23T21:19:02.029Z,85.31
2023-12-23T21:21:30.110Z,85.35
2023-12-23T21:24:03.732Z,85.26
2023-12-23T21:26:32.140Z,85.51
2023-12-23T21:29:00.367Z,85.54
2023-12-23T21:31:28.562Z,85.36
2023-12-23T21:33:57.371Z,85.28
2023-12-23T21:36:25.416Z,85.40
2023-12-23T21:38:53.819Z,85.42
2023-12-23T21:41:22.226Z,85.36
2023-12-23T21:43:50.383Z,85.47
2023-12-23T21:46:18.535Z,85.40
2023-12-23T21:48:46.955Z,85.25
2023-12-23T21:51:15.048Z,85.31
2023-12-23T21:53:43.343Z,85.27
2023-12-23T21:56:11.553Z,85.25
2023-12-23T21:58:40.028Z,85.17
2023-12-23T22:01:08.455Z,85.25
2023-12-23T22:03:36.566Z,85.38
2023-12-23T22:06:05.223Z,85.34
2023-12-23T22:08:33.637Z,85.24
2023-12-23T22:11:02.849Z,85.02
2023-12-23T22:13:30.926Z,85.01
2023-12-23T22:15:59.205Z,85.07
2023-12-23T22:18:27.411Z,85.08
2023-12-23T22:20:55.659Z,85.05
2023-12-23T22:23:23.812Z,85.08
2023-12-23T22:25:55.187Z,85.05
2023-12-23T22:28:23.311Z,85.07
2023-12-23T22:30:51.870Z,85.09
2023-12-23T22:33:20.844Z,85.07
2023-12-23T22:35:48.942Z,85.03
2023-12-23T22:38:17.086Z,84.98
2023-12-23T22:40:45.317Z,84.90
2023-12-23T22:43:13.304Z,84.92
2023-12-23T22:45:41.439Z,84.88
2023-12-23T22:48:09.751Z,84.87
2023-12-23T22:50:37.938Z,84.89
2023-12-23T22:53:06.064Z,84.91
2023-12-23T22:55:34.479Z,84.88
2023-12-23T22:58:02.403Z,85.01
2023-12-23T23:00:30.847Z,84.95
2023-12-23T23:03:00.862Z,84.87
2023-12-23T23:05:29.115Z,84.91
2023-12-23T23:07:57.307Z,84.91
2023-12-23T23:10:25.475Z,85.14
2023-12-23T23:12:54.517Z,85.17
2023-12-23T23:15:23.068Z,85.04
2023-12-23T23:17:51.289Z,85.00
2023-12-23T23:20:19.806Z,84.99
2023-12-23T23:22:48.045Z,85.01
2023-12-23T23:25:16.024Z,85.02
2023-12-23T23:27:44.040Z,84.98
2023-12-23T23:30:12.598Z,84.93
2023-12-23T23:32:41.166Z,84.91
2023-12-23T23:35:12.023Z,84.95
2023-12-23T23:37:41.681Z,84.88
2023-12-23T23:40:10.052Z,84.94
2023-12-23T23:42:38.824Z,84.87
2023-12-23T23:45:07.955Z,84.81
2023-12-23T23:47:36.260Z,84.83
2023-12-23T23:50:08.103Z,84.87
2023-12-23T23:52:36.614Z,84.91
2023-12-23T23:55:08.994Z,84.98
2023-12-23T23:57:37.028Z,84.91
